sensor_id;sensor_type;location;lat;lon;timestamp;pressure;altitude;pressure_sealevel;temperature;humidity
70302;BME280;57706;56.326;43.882;2023-04-26T00:01:33;99643.91;;;11.50;96.82
70302;BME280;57706;56.326;43.882;2023-04-26T00:04:00;99638.94;;;11.40;96.79
70302;BME280;57706;56.326;43.882;2023-04-26T00:06:26;99638.94;;;11.40;97.28
70302;BME280;57706;56.326;43.882;2023-04-26T00:08:51;99632.84;;;11.40;97.77
70302;BME280;57706;56.326;43.882;2023-04-26T00:11:17;99637.09;;;11.41;97.86
70302;BME280;57706;56.326;43.882;2023-04-26T00:13:43;99635.25;;;11.35;97.79
70302;BME280;57706;56.326;43.882;2023-04-26T00:16:09;99636.56;;;11.46;97.64
70302;BME280;57706;56.326;43.882;2023-04-26T00:18:35;99622.41;;;11.47;97.05
70302;BME280;57706;56.326;43.882;2023-04-26T00:21:00;99624.84;;;11.48;97.56
70302;BME280;57706;56.326;43.882;2023-04-26T00:23:27;99618.34;;;11.44;97.77
70302;BME280;57706;56.326;43.882;2023-04-26T00:25:53;99607.19;;;11.42;97.95
70302;BME280;57706;56.326;43.882;2023-04-26T00:28:18;99612.31;;;11.50;97.11
70302;BME280;57706;56.326;43.882;2023-04-26T00:30:45;99611.00;;;11.39;97.06
70302;BME280;57706;56.326;43.882;2023-04-26T00:33:13;99603.16;;;11.46;97.11
70302;BME280;57706;56.326;43.882;2023-04-26T00:35:39;99600.66;;;11.38;97.30
70302;BME280;57706;56.326;43.882;2023-04-26T00:38:05;99595.75;;;11.56;97.46
70302;BME280;57706;56.326;43.882;2023-04-26T00:40:32;99591.41;;;11.42;97.45
70302;BME280;57706;56.326;43.882;2023-04-26T00:43:00;99590.44;;;11.50;97.31
70302;BME280;57706;56.326;43.882;2023-04-26T00:45:27;99578.25;;;11.42;97.49
70302;BME280;57706;56.326;43.882;2023-04-26T00:47:53;99570.59;;;11.47;97.59
70302;BME280;57706;56.326;43.882;2023-04-26T00:50:19;99587.38;;;11.46;97.07
70302;BME280;57706;56.326;43.882;2023-04-26T00:52:46;99573.56;;;11.37;97.68
70302;BME280;57706;56.326;43.882;2023-04-26T00:55:12;99578.25;;;11.42;97.79
70302;BME280;57706;56.326;43.882;2023-04-26T00:57:39;99580.50;;;11.45;98.04
70302;BME280;57706;56.326;43.882;2023-04-26T01:00:05;99570.09;;;11.37;97.49
70302;BME280;57706;56.326;43.882;2023-04-26T01:02:33;99574.47;;;11.51;97.67
70302;BME280;57706;56.326;43.882;2023-04-26T01:04:59;99560.88;;;11.48;96.87
70302;BME280;57706;56.326;43.882;2023-04-26T01:07:25;99559.81;;;11.42;97.29
70302;BME280;57706;56.326;43.882;2023-04-26T01:09:51;99558.56;;;11.60;97.14
70302;BME280;57706;56.326;43.882;2023-04-26T01:12:17;99553.00;;;11.48;97.20
70302;BME280;57706;56.326;43.882;2023-04-26T01:14:44;99544.72;;;11.51;96.92
70302;BME280;57706;56.326;43.882;2023-04-26T01:17:10;99549.97;;;11.51;97.02
70302;BME280;57706;56.326;43.882;2023-04-26T01:19:48;99536.38;;;11.47;96.92
70302;BME280;57706;56.326;43.882;2023-04-26T01:22:15;99536.72;;;11.37;96.81
70302;BME280;57706;56.326;43.882;2023-04-26T01:24:43;99532.69;;;11.41;97.13
70302;BME280;57706;56.326;43.882;2023-04-26T01:27:11;99540.75;;;11.40;97.36
70302;BME280;57706;56.326;43.882;2023-04-26T01:29:40;99527.72;;;11.53;96.82
70302;BME280;57706;56.326;43.882;2023-04-26T01:32:06;99525.25;;;11.45;97.74
70302;BME280;57706;56.326;43.882;2023-04-26T01:34:32;99526.44;;;11.42;97.72
70302;BME280;57706;56.326;43.882;2023-04-26T01:36:59;99532.50;;;11.43;98.04
70302;BME280;57706;56.326;43.882;2023-04-26T01:39:27;99521.66;;;11.53;97.41
70302;BME280;57706;56.326;43.882;2023-04-26T01:41:53;99526.81;;;11.39;97.09
70302;BME280;57706;56.326;43.882;2023-04-26T01:44:19;99515.19;;;11.55;97.34
70302;BME280;57706;56.326;43.882;2023-04-26T01:46:45;99525.72;;;11.55;97.13
70302;BME280;57706;56.326;43.882;2023-04-26T01:49:12;99510.50;;;11.51;96.87
70302;BME280;57706;56.326;43.882;2023-04-26T01:51:38;99504.81;;;11.47;97.13
70302;BME280;57706;56.326;43.882;2023-04-26T01:54:06;99505.50;;;11.56;97.04
70302;BME280;57706;56.326;43.882;2023-04-26T01:56:32;99506.72;;;11.60;97.27
70302;BME280;57706;56.326;43.882;2023-04-26T01:59:00;99509.63;;;11.65;96.15
70302;BME280;57706;56.326;43.882;2023-04-26T02:01:26;99492.13;;;11.57;96.30
70302;BME280;57706;56.326;43.882;2023-04-26T02:03:52;99501.81;;;11.50;96.46
70302;BME280;57706;56.326;43.882;2023-04-26T02:06:20;99498.19;;;11.51;96.68
70302;BME280;57706;56.326;43.882;2023-04-26T02:08:46;99494.75;;;11.57;96.33
70302;BME280;57706;56.326;43.882;2023-04-26T02:11:12;99492.13;;;11.57;96.71
70302;BME280;57706;56.326;43.882;2023-04-26T02:13:38;99492.66;;;11.75;95.77
70302;BME280;57706;56.326;43.882;2023-04-26T02:16:06;99483.31;;;11.72;95.13
70302;BME280;57706;56.326;43.882;2023-04-26T02:18:33;99483.47;;;11.64;96.12
70302;BME280;57706;56.326;43.882;2023-04-26T02:20:59;99481.59;;;11.57;96.52
70302;BME280;57706;56.326;43.882;2023-04-26T02:23:25;99478.47;;;11.69;95.86
70302;BME280;57706;56.326;43.882;2023-04-26T02:25:51;99480.69;;;11.72;96.47
70302;BME280;57706;56.326;43.882;2023-04-26T02:28:17;99471.56;;;11.68;95.81
70302;BME280;57706;56.326;43.882;2023-04-26T02:30:43;99479.34;;;11.83;95.22
70302;BME280;57706;56.326;43.882;2023-04-26T02:33:10;99466.53;;;11.73;95.57
70302;BME280;57706;56.326;43.882;2023-04-26T02:35:36;99468.72;;;11.69;95.80
70302;BME280;57706;56.326;43.882;2023-04-26T02:38:04;99474.06;;;11.76;96.62
70302;BME280;57706;56.326;43.882;2023-04-26T02:40:30;99474.41;;;11.73;95.72
70302;BME280;57706;56.326;43.882;2023-04-26T02:42:56;99464.75;;;11.80;95.73
70302;BME280;57706;56.326;43.882;2023-04-26T02:45:22;99466.81;;;11.85;95.03
70302;BME280;57706;56.326;43.882;2023-04-26T02:47:48;99458.03;;;11.78;95.39
70302;BME280;57706;56.326;43.882;2023-04-26T02:50:15;99461.50;;;11.78;95.37
70302;BME280;57706;56.326;43.882;2023-04-26T02:52:41;99455.63;;;11.76;95.82
70302;BME280;57706;56.326;43.882;2023-04-26T02:55:07;99459.88;;;11.77;95.82
70302;BME280;57706;56.326;43.882;2023-04-26T02:57:33;99453.38;;;11.73;96.33
70302;BME280;57706;56.326;43.882;2023-04-26T02:59:59;99454.00;;;11.75;96.42
70302;BME280;57706;56.326;43.882;2023-04-26T03:02:26;99454.84;;;11.82;96.17
70302;BME280;57706;56.326;43.882;2023-04-26T03:04:52;99450.59;;;11.81;96.58
70302;BME280;57706;56.326;43.882;2023-04-26T03:07:20;99451.75;;;11.72;97.20
70302;BME280;57706;56.326;43.882;2023-04-26T03:09:46;99456.06;;;11.80;97.57
70302;BME280;57706;56.326;43.882;2023-04-26T03:12:12;99446.59;;;11.92;96.52
70302;BME280;57706;56.326;43.882;2023-04-26T03:14:38;99447.00;;;11.89;96.22
70302;BME280;57706;56.326;43.882;2023-04-26T03:17:04;99437.66;;;11.87;96.82
70302;BME280;57706;56.326;43.882;2023-04-26T03:19:32;99447.59;;;11.91;96.37
70302;BME280;57706;56.326;43.882;2023-04-26T03:21:58;99436.09;;;11.99;96.72
70302;BME280;57706;56.326;43.882;2023-04-26T03:24:25;99440.75;;;11.97;95.94
70302;BME280;57706;56.326;43.882;2023-04-26T03:26:51;99431.75;;;12.13;94.76
70302;BME280;57706;56.326;43.882;2023-04-26T03:29:17;99428.06;;;12.07;94.28
70302;BME280;57706;56.326;43.882;2023-04-26T03:31:43;99433.72;;;12.04;94.75
70302;BME280;57706;56.326;43.882;2023-04-26T03:34:10;99428.34;;;11.91;95.65
70302;BME280;57706;56.326;43.882;2023-04-26T03:36:36;99425.97;;;11.96;96.04
70302;BME280;57706;56.326;43.882;2023-04-26T03:39:04;99423.28;;;12.24;92.96
70302;BME280;57706;56.326;43.882;2023-04-26T03:41:32;99421.06;;;12.28;93.91
70302;BME280;57706;56.326;43.882;2023-04-26T03:44:01;99420.28;;;12.34;92.58
70302;BME280;57706;56.326;43.882;2023-04-26T03:46:27;99419.53;;;12.05;93.24
70302;BME280;57706;56.326;43.882;2023-04-26T03:48:53;99415.53;;;12.09;94.09
70302;BME280;57706;56.326;43.882;2023-04-26T03:51:19;99412.31;;;12.21;92.67
70302;BME280;57706;56.326;43.882;2023-04-26T03:53:46;99412.19;;;12.43;91.91
70302;BME280;57706;56.326;43.882;2023-04-26T03:56:13;99416.88;;;12.47;91.27
70302;BME280;57706;56.326;43.882;2023-04-26T03:58:39;99408.94;;;12.41;91.33
70302;BME280;57706;56.326;43.882;2023-04-26T04:01:06;99404.75;;;12.66;89.65
70302;BME280;57706;56.326;43.882;2023-04-26T04:03:33;99405.94;;;12.57;91.02
70302;BME280;57706;56.326;43.882;2023-04-26T04:05:59;99410.03;;;12.73;89.79
70302;BME280;57706;56.326;43.882;2023-04-26T04:08:25;99399.47;;;12.66;89.94
70302;BME280;57706;56.326;43.882;2023-04-26T04:10:51;99400.09;;;12.62;90.03
70302;BME280;57706;56.326;43.882;2023-04-26T04:13:18;99396.47;;;12.83;89.45
70302;BME280;57706;56.326;43.882;2023-04-26T04:15:44;99383.06;;;12.91;88.52
70302;BME280;57706;56.326;43.882;2023-04-26T04:18:10;99385.28;;;12.94;88.83
70302;BME280;57706;56.326;43.882;2023-04-26T04:20:36;99391.97;;;12.84;89.40
70302;BME280;57706;56.326;43.882;2023-04-26T04:23:01;99382.84;;;12.73;90.36
70302;BME280;57706;56.326;43.882;2023-04-26T04:25:30;99389.72;;;12.60;91.31
70302;BME280;57706;56.326;43.882;2023-04-26T04:28:01;99383.22;;;12.56;91.16
70302;BME280;57706;56.326;43.882;2023-04-26T04:30:28;99388.53;;;12.70;91.07
70302;BME280;57706;56.326;43.882;2023-04-26T04:32:54;99379.81;;;12.89;88.28
70302;BME280;57706;56.326;43.882;2023-04-26T04:35:21;99383.84;;;12.72;90.09
70302;BME280;57706;56.326;43.882;2023-04-26T04:37:47;99381.22;;;12.72;89.80
70302;BME280;57706;56.326;43.882;2023-04-26T04:40:15;99377.56;;;12.73;89.73
70302;BME280;57706;56.326;43.882;2023-04-26T04:42:43;99375.53;;;12.61;90.16
70302;BME280;57706;56.326;43.882;2023-04-26T04:45:11;99381.22;;;12.58;91.58
70302;BME280;57706;56.326;43.882;2023-04-26T04:47:38;99371.28;;;12.74;90.76
70302;BME280;57706;56.326;43.882;2023-04-26T04:50:05;99382.03;;;12.79;91.17
70302;BME280;57706;56.326;43.882;2023-04-26T04:52:32;99380.00;;;12.68;92.10
70302;BME280;57706;56.326;43.882;2023-04-26T04:54:59;99379.59;;;12.71;94.00
70302;BME280;57706;56.326;43.882;2023-04-26T04:57:26;99371.88;;;12.62;93.58
70302;BME280;57706;56.326;43.882;2023-04-26T04:59:52;99376.09;;;12.36;94.45
70302;BME280;57706;56.326;43.882;2023-04-26T05:02:18;99372.47;;;12.51;93.52
70302;BME280;57706;56.326;43.882;2023-04-26T05:04:45;99369.03;;;12.44;94.03
70302;BME280;57706;56.326;43.882;2023-04-26T05:07:10;99368.19;;;12.36;94.80
70302;BME280;57706;56.326;43.882;2023-04-26T05:09:38;99368.44;;;12.62;95.46
70302;BME280;57706;56.326;43.882;2023-04-26T05:12:05;99371.88;;;12.62;94.71
70302;BME280;57706;56.326;43.882;2023-04-26T05:14:32;99375.50;;;12.48;95.74
70302;BME280;57706;56.326;43.882;2023-04-26T05:16:58;99364.78;;;12.49;95.49
70302;BME280;57706;56.326;43.882;2023-04-26T05:19:25;99372.28;;;12.59;95.44
70302;BME280;57706;56.326;43.882;2023-04-26T05:21:51;99370.03;;;12.56;93.60
70302;BME280;57706;56.326;43.882;2023-04-26T05:24:17;99363.56;;;12.65;94.14
70302;BME280;57706;56.326;43.882;2023-04-26T05:26:43;99366.63;;;12.62;94.06
70302;BME280;57706;56.326;43.882;2023-04-26T05:29:12;99367.63;;;12.61;93.64
70302;BME280;57706;56.326;43.882;2023-04-26T05:31:57;99365.78;;;12.55;94.12
70302;BME280;57706;56.326;43.882;2023-04-26T05:34:38;99364.53;;;12.44;94.02
70302;BME280;57706;56.326;43.882;2023-04-26T05:37:04;99365.81;;;12.62;93.96
70302;BME280;57706;56.326;43.882;2023-04-26T05:39:30;99354.44;;;13.08;92.32
70302;BME280;57706;56.326;43.882;2023-04-26T05:41:56;99355.25;;;13.22;90.73
70302;BME280;57706;56.326;43.882;2023-04-26T05:44:22;99357.28;;;13.34;89.64
70302;BME280;57706;56.326;43.882;2023-04-26T05:46:48;99355.81;;;13.58;87.51
70302;BME280;57706;56.326;43.882;2023-04-26T05:49:14;99357.63;;;13.65;87.13
70302;BME280;57706;56.326;43.882;2023-04-26T05:51:40;99366.09;;;13.80;86.35
70302;BME280;57706;56.326;43.882;2023-04-26T05:54:06;99355.69;;;13.92;85.36
70302;BME280;57706;56.326;43.882;2023-04-26T05:56:32;99351.91;;;13.74;86.10
70302;BME280;57706;56.326;43.882;2023-04-26T05:59:00;99349.13;;;13.35;87.75
70302;BME280;57706;56.326;43.882;2023-04-26T06:01:25;99350.72;;;13.57;88.27
70302;BME280;57706;56.326;43.882;2023-04-26T06:03:52;99345.31;;;13.97;86.50
70302;BME280;57706;56.326;43.882;2023-04-26T06:06:21;99343.59;;;14.16;83.84
70302;BME280;57706;56.326;43.882;2023-04-26T06:08:47;99352.00;;;14.39;82.21
70302;BME280;57706;56.326;43.882;2023-04-26T06:11:13;99346.69;;;14.39;81.73
70302;BME280;57706;56.326;43.882;2023-04-26T06:13:39;99354.88;;;14.37;82.24
70302;BME280;57706;56.326;43.882;2023-04-26T06:16:07;99364.53;;;14.50;81.59
70302;BME280;57706;56.326;43.882;2023-04-26T06:18:33;99360.66;;;14.21;83.17
70302;BME280;57706;56.326;43.882;2023-04-26T06:21:00;99362.69;;;14.18;82.87
70302;BME280;57706;56.326;43.882;2023-04-26T06:23:26;99366.44;;;13.97;83.22
70302;BME280;57706;56.326;43.882;2023-04-26T06:25:51;99355.41;;;13.61;84.69
70302;BME280;57706;56.326;43.882;2023-04-26T06:28:17;99365.72;;;13.76;84.87
70302;BME280;57706;56.326;43.882;2023-04-26T06:30:45;99352.69;;;13.82;83.88
70302;BME280;57706;56.326;43.882;2023-04-26T06:33:11;99347.63;;;13.80;84.11
70302;BME280;57706;56.326;43.882;2023-04-26T06:35:41;99349.75;;;14.03;82.97
70302;BME280;57706;56.326;43.882;2023-04-26T06:38:08;99347.75;;;13.99;83.65
70302;BME280;57706;56.326;43.882;2023-04-26T06:40:35;99346.38;;;14.28;81.99
70302;BME280;57706;56.326;43.882;2023-04-26T06:43:04;99340.56;;;14.45;81.63
70302;BME280;57706;56.326;43.882;2023-04-26T06:45:38;99325.50;;;15.03;78.80
70302;BME280;57706;56.326;43.882;2023-04-26T06:48:04;99327.31;;;15.65;75.51
70302;BME280;57706;56.326;43.882;2023-04-26T06:50:32;99328.78;;;16.41;72.11
70302;BME280;57706;56.326;43.882;2023-04-26T06:52:58;99336.03;;;16.34;72.32
70302;BME280;57706;56.326;43.882;2023-04-26T06:55:24;99326.47;;;16.33;73.01
70302;BME280;57706;56.326;43.882;2023-04-26T06:57:49;99318.34;;;15.66;73.76
70302;BME280;57706;56.326;43.882;2023-04-26T07:00:15;99316.72;;;15.65;73.82
70302;BME280;57706;56.326;43.882;2023-04-26T07:02:42;99320.72;;;16.05;74.52
70302;BME280;57706;56.326;43.882;2023-04-26T07:05:09;99321.22;;;16.57;72.17
70302;BME280;57706;56.326;43.882;2023-04-26T07:07:34;99323.41;;;16.72;70.62
70302;BME280;57706;56.326;43.882;2023-04-26T07:10:00;99313.53;;;17.27;68.45
70302;BME280;57706;56.326;43.882;2023-04-26T07:12:26;99313.94;;;19.65;59.96
70302;BME280;57706;56.326;43.882;2023-04-26T07:14:52;99315.94;;;24.06;46.52
70302;BME280;57706;56.326;43.882;2023-04-26T07:17:18;99321.16;;;24.27;44.81
70302;BME280;57706;56.326;43.882;2023-04-26T07:19:44;99319.16;;;21.56;52.17
70302;BME280;57706;56.326;43.882;2023-04-26T07:22:10;99316.78;;;20.03;57.03
70302;BME280;57706;56.326;43.882;2023-04-26T07:24:36;99315.13;;;17.69;63.58
70302;BME280;57706;56.326;43.882;2023-04-26T07:27:02;99315.50;;;17.08;66.17
70302;BME280;57706;56.326;43.882;2023-04-26T07:29:28;99318.69;;;16.86;66.74
70302;BME280;57706;56.326;43.882;2023-04-26T07:31:54;99324.06;;;16.55;68.21
70302;BME280;57706;56.326;43.882;2023-04-26T07:34:21;99326.53;;;15.95;69.36
70302;BME280;57706;56.326;43.882;2023-04-26T07:36:47;99331.28;;;15.75;70.18
70302;BME280;57706;56.326;43.882;2023-04-26T07:39:13;99316.00;;;16.07;69.81
70302;BME280;57706;56.326;43.882;2023-04-26T07:41:40;99295.81;;;15.76;70.21
70302;BME280;57706;56.326;43.882;2023-04-26T07:44:06;99313.19;;;15.53;71.79
70302;BME280;57706;56.326;43.882;2023-04-26T07:46:33;99318.44;;;15.72;72.93
70302;BME280;57706;56.326;43.882;2023-04-26T07:48:59;99314.78;;;15.54;75.41
70302;BME280;57706;56.326;43.882;2023-04-26T07:51:25;99316.41;;;15.36;76.01
70302;BME280;57706;56.326;43.882;2023-04-26T07:53:52;99333.47;;;15.59;78.55
70302;BME280;57706;56.326;43.882;2023-04-26T07:56:20;99320.53;;;15.51;78.29
70302;BME280;57706;56.326;43.882;2023-04-26T07:58:46;99310.09;;;15.37;77.53
70302;BME280;57706;56.326;43.882;2023-04-26T08:01:12;99316.53;;;15.79;77.00
70302;BME280;57706;56.326;43.882;2023-04-26T08:03:38;99319.47;;;16.08;75.32
70302;BME280;57706;56.326;43.882;2023-04-26T08:06:03;99311.75;;;16.85;72.45
70302;BME280;57706;56.326;43.882;2023-04-26T08:08:30;99308.44;;;17.13;69.79
70302;BME280;57706;56.326;43.882;2023-04-26T08:10:57;99323.88;;;16.81;69.77
70302;BME280;57706;56.326;43.882;2023-04-26T08:13:23;99318.56;;;16.92;69.78
70302;BME280;57706;56.326;43.882;2023-04-26T08:15:49;99311.44;;;17.70;65.94
70302;BME280;57706;56.326;43.882;2023-04-26T08:18:16;99317.16;;;18.20;63.35
70302;BME280;57706;56.326;43.882;2023-04-26T08:20:42;99294.84;;;18.55;62.02
70302;BME280;57706;56.326;43.882;2023-04-26T08:23:08;99295.28;;;18.81;60.54
70302;BME280;57706;56.326;43.882;2023-04-26T08:25:34;99296.22;;;20.03;57.01
70302;BME280;57706;56.326;43.882;2023-04-26T08:28:00;99294.09;;;20.71;54.25
70302;BME280;57706;56.326;43.882;2023-04-26T08:30:27;99291.59;;;20.21;56.02
70302;BME280;57706;56.326;43.882;2023-04-26T08:32:53;99291.84;;;19.92;55.67
70302;BME280;57706;56.326;43.882;2023-04-26T08:35:19;99287.06;;;20.21;56.36
70302;BME280;57706;56.326;43.882;2023-04-26T08:37:46;99273.72;;;20.54;54.34
70302;BME280;57706;56.326;43.882;2023-04-26T08:40:12;99285.44;;;20.48;53.17
70302;BME280;57706;56.326;43.882;2023-04-26T08:42:41;99279.28;;;20.85;52.41
70302;BME280;57706;56.326;43.882;2023-04-26T08:45:09;99262.66;;;26.09;40.49
70302;BME280;57706;56.326;43.882;2023-04-26T08:48:09;99250.06;;;32.12;29.40
70302;BME280;57706;56.326;43.882;2023-04-26T08:50:38;99234.38;;;34.64;25.69
70302;BME280;57706;56.326;43.882;2023-04-26T08:53:05;99229.06;;;37.37;22.10
70302;BME280;57706;56.326;43.882;2023-04-26T08:55:32;99222.22;;;30.66;29.00
70302;BME280;57706;56.326;43.882;2023-04-26T08:58:00;99211.09;;;36.28;22.87
70302;BME280;57706;56.326;43.882;2023-04-26T09:00:27;99218.13;;;29.94;29.11
70302;BME280;57706;56.326;43.882;2023-04-26T09:02:55;99213.72;;;27.47;33.50
70302;BME280;57706;56.326;43.882;2023-04-26T09:05:21;99222.88;;;35.26;24.16
70302;BME280;57706;56.326;43.882;2023-04-26T09:07:50;99215.25;;;36.18;20.90
70302;BME280;57706;56.326;43.882;2023-04-26T09:10:18;99206.03;;;36.53;20.76
70302;BME280;57706;56.326;43.882;2023-04-26T09:12:46;99206.09;;;31.21;27.55
70302;BME280;57706;56.326;43.882;2023-04-26T09:15:14;99212.72;;;28.02;31.84
70302;BME280;57706;56.326;43.882;2023-04-26T09:17:40;99210.50;;;26.52;32.95
70302;BME280;57706;56.326;43.882;2023-04-26T09:22:53;99197.25;;;25.18;35.44
70302;BME280;57706;56.326;43.882;2023-04-26T09:25:30;99194.06;;;24.42;36.98
70302;BME280;57706;56.326;43.882;2023-04-26T09:27:57;99182.16;;;23.04;40.55
70302;BME280;57706;56.326;43.882;2023-04-26T09:30:24;99176.22;;;25.00;35.88
70302;BME280;57706;56.326;43.882;2023-04-26T09:37:57;99175.34;;;22.51;40.95
70302;BME280;57706;56.326;43.882;2023-04-26T09:40:25;99170.28;;;32.29;25.74
70302;BME280;57706;56.326;43.882;2023-04-26T09:43:04;99174.13;;;34.89;21.29
70302;BME280;57706;56.326;43.882;2023-04-26T09:45:32;99168.09;;;34.99;21.09
70302;BME280;57706;56.326;43.882;2023-04-26T09:48:15;99168.91;;;37.44;18.45
70302;BME280;57706;56.326;43.882;2023-04-26T09:50:42;99157.06;;;37.32;18.21
70302;BME280;57706;56.326;43.882;2023-04-26T09:53:30;99152.16;;;32.21;23.45
70302;BME280;57706;56.326;43.882;2023-04-26T09:56:09;99155.75;;;35.64;19.93
70302;BME280;57706;56.326;43.882;2023-04-26T10:01:13;99156.81;;;36.57;18.33
70302;BME280;57706;56.326;43.882;2023-04-26T10:03:39;99154.19;;;33.56;20.25
70302;BME280;57706;56.326;43.882;2023-04-26T10:06:07;99159.50;;;33.36;20.26
70302;BME280;57706;56.326;43.882;2023-04-26T10:08:34;99166.13;;;34.44;17.79
70302;BME280;57706;56.326;43.882;2023-04-26T10:11:02;99164.53;;;30.27;23.03
70302;BME280;57706;56.326;43.882;2023-04-26T10:13:32;99160.81;;;26.30;29.06
70302;BME280;57706;56.326;43.882;2023-04-26T10:15:59;99174.44;;;24.17;33.38
70302;BME280;57706;56.326;43.882;2023-04-26T10:18:31;99160.53;;;23.41;34.65
70302;BME280;57706;56.326;43.882;2023-04-26T10:21:06;99166.25;;;21.43;38.92
70302;BME280;57706;56.326;43.882;2023-04-26T10:23:35;99181.50;;;20.74;41.05
70302;BME280;57706;56.326;43.882;2023-04-26T10:26:01;99217.88;;;19.54;45.44
70302;BME280;57706;56.326;43.882;2023-04-26T10:31:08;99241.41;;;14.86;69.08
70302;BME280;57706;56.326;43.882;2023-04-26T10:33:35;99234.53;;;13.70;81.26
70302;BME280;57706;56.326;43.882;2023-04-26T10:36:11;99229.81;;;13.27;87.27
70302;BME280;57706;56.326;43.882;2023-04-26T10:38:40;99231.56;;;12.74;86.19
70302;BME280;57706;56.326;43.882;2023-04-26T10:43:58;99223.34;;;13.16;88.82
70302;BME280;57706;56.326;43.882;2023-04-26T10:46:34;99224.69;;;13.45;89.37
70302;BME280;57706;56.326;43.882;2023-04-26T10:49:18;99223.53;;;13.73;85.62
70302;BME280;57706;56.326;43.882;2023-04-26T10:52:10;99230.28;;;14.27;86.24
70302;BME280;57706;56.326;43.882;2023-04-26T10:54:56;99214.84;;;15.00;83.50
70302;BME280;57706;56.326;43.882;2023-04-26T11:10:39;99201.47;;;17.71;69.81
70302;BME280;57706;56.326;43.882;2023-04-26T11:13:05;99202.81;;;19.65;63.51
70302;BME280;57706;56.326;43.882;2023-04-26T11:15:32;99196.56;;;24.58;55.92
70302;BME280;57706;56.326;43.882;2023-04-26T11:18:01;99188.22;;;29.29;37.02
70302;BME280;57706;56.326;43.882;2023-04-26T11:20:28;99184.19;;;31.69;30.75
70302;BME280;57706;56.326;43.882;2023-04-26T11:22:56;99183.38;;;29.97;39.41
70302;BME280;57706;56.326;43.882;2023-04-26T11:25:24;99189.38;;;28.07;42.19
70302;BME280;57706;56.326;43.882;2023-04-26T11:28:05;99189.03;;;25.09;39.61
70302;BME280;57706;56.326;43.882;2023-04-26T11:30:31;99195.19;;;21.83;45.12
70302;BME280;57706;56.326;43.882;2023-04-26T11:33:03;99212.06;;;19.58;41.18
70302;BME280;57706;56.326;43.882;2023-04-26T11:35:37;99186.69;;;19.22;41.39
70302;BME280;57706;56.326;43.882;2023-04-26T11:38:04;99203.78;;;20.47;38.33
70302;BME280;57706;56.326;43.882;2023-04-26T11:40:33;99200.63;;;20.55;39.29
70302;BME280;57706;56.326;43.882;2023-04-26T11:43:05;99195.66;;;20.80;37.61
70302;BME280;57706;56.326;43.882;2023-04-26T11:45:33;99194.13;;;20.89;38.72
70302;BME280;57706;56.326;43.882;2023-04-26T11:48:09;99195.75;;;21.80;37.39
70302;BME280;57706;56.326;43.882;2023-04-26T11:50:37;99235.31;;;22.66;33.32
70302;BME280;57706;56.326;43.882;2023-04-26T11:53:05;99212.31;;;23.76;33.24
70302;BME280;57706;56.326;43.882;2023-04-26T11:55:32;99213.47;;;24.34;31.68
70302;BME280;57706;56.326;43.882;2023-04-26T11:58:00;99203.25;;;25.53;30.96
70302;BME280;57706;56.326;43.882;2023-04-26T12:00:26;99184.56;;;26.70;29.25
70302;BME280;57706;56.326;43.882;2023-04-26T12:02:52;99194.53;;;26.42;29.25
70302;BME280;57706;56.326;43.882;2023-04-26T12:05:28;99188.38;;;26.69;29.21
70302;BME280;57706;56.326;43.882;2023-04-26T12:07:58;99187.44;;;27.16;28.22
70302;BME280;57706;56.326;43.882;2023-04-26T12:10:27;99178.78;;;26.49;29.38
70302;BME280;57706;56.326;43.882;2023-04-26T12:12:54;99184.88;;;26.41;29.08
70302;BME280;57706;56.326;43.882;2023-04-26T12:15:28;99173.78;;;27.12;28.31
70302;BME280;57706;56.326;43.882;2023-04-26T12:17:57;99186.31;;;28.22;28.19
70302;BME280;57706;56.326;43.882;2023-04-26T12:20:28;99179.66;;;25.83;31.36
70302;BME280;57706;56.326;43.882;2023-04-26T12:22:59;99184.50;;;21.93;37.66
70302;BME280;57706;56.326;43.882;2023-04-26T12:25:25;99189.50;;;20.79;40.30
70302;BME280;57706;56.326;43.882;2023-04-26T12:27:51;99200.34;;;19.59;42.97
70302;BME280;57706;56.326;43.882;2023-04-26T12:30:17;99183.56;;;19.08;43.04
70302;BME280;57706;56.326;43.882;2023-04-26T12:32:43;99192.88;;;19.06;44.64
70302;BME280;57706;56.326;43.882;2023-04-26T12:35:09;99186.47;;;20.17;43.26
70302;BME280;57706;56.326;43.882;2023-04-26T12:37:35;99189.03;;;25.47;32.59
70302;BME280;57706;56.326;43.882;2023-04-26T12:40:01;99190.97;;;23.05;36.53
70302;BME280;57706;56.326;43.882;2023-04-26T12:42:27;99177.59;;;20.44;42.74
70302;BME280;57706;56.326;43.882;2023-04-26T12:44:53;99187.38;;;19.40;45.19
70302;BME280;57706;56.326;43.882;2023-04-26T12:47:19;99198.41;;;18.82;46.15
70302;BME280;57706;56.326;43.882;2023-04-26T12:49:45;99190.69;;;18.63;47.33
70302;BME280;57706;56.326;43.882;2023-04-26T12:52:10;99192.75;;;18.78;47.08
70302;BME280;57706;56.326;43.882;2023-04-26T12:54:36;99190.00;;;19.12;45.80
70302;BME280;57706;56.326;43.882;2023-04-26T12:57:02;99187.88;;;19.37;45.91
70302;BME280;57706;56.326;43.882;2023-04-26T12:59:28;99191.56;;;19.31;46.03
70302;BME280;57706;56.326;43.882;2023-04-26T13:01:54;99185.34;;;18.80;47.84
70302;BME280;57706;56.326;43.882;2023-04-26T13:04:20;99178.69;;;18.61;48.36
70302;BME280;57706;56.326;43.882;2023-04-26T13:06:46;99189.41;;;18.88;45.37
70302;BME280;57706;56.326;43.882;2023-04-26T13:09:11;99194.38;;;19.74;43.04
70302;BME280;57706;56.326;43.882;2023-04-26T13:11:38;99198.44;;;19.54;43.97
70302;BME280;57706;56.326;43.882;2023-04-26T13:14:05;99200.34;;;19.59;43.55
70302;BME280;57706;56.326;43.882;2023-04-26T13:16:34;99193.22;;;19.64;43.09
70302;BME280;57706;56.326;43.882;2023-04-26T13:19:00;99198.50;;;19.32;43.97
70302;BME280;57706;56.326;43.882;2023-04-26T13:21:26;99193.59;;;20.44;40.80